sensor_id;sensor_type;location;lat;lon;timestamp;pressure;altitude;pressure_sealevel;temperature;humidity
6200;BME280;3133;43.214;27.906;2023-10-09T00:01:51;101386.94;;;12.99;100.00
6200;BME280;3133;43.214;27.906;2023-10-09T00:04:18;101352.84;;;12.91;100.00
6200;BME280;3133;43.214;27.906;2023-10-09T00:06:46;101379.06;;;13.03;100.00
6200;BME280;3133;43.214;27.906;2023-10-09T00:09:14;101367.72;;;12.98;100.00
6200;BME280;3133;43.214;27.906;2023-10-09T00:11:51;101373.88;;;13.06;100.00
6200;BME280;3133;43.214;27.906;2023-10-09T00:14:24;101363.41;;;13.05;100.00
6200;BME280;3133;43.214;27.906;2023-10-09T00:16:51;101374.69;;;12.90;100.00
6200;BME280;3133;43.214;27.906;2023-10-09T00:19:31;101373.69;;;12.72;100.00
6200;BME280;3133;43.214;27.906;2023-10-09T00:21:59;101352.75;;;12.70;100.00
6200;BME280;3133;43.214;27.906;2023-10-09T00:24:32;101365.84;;;12.72;100.00
6200;BME280;3133;43.214;27.906;2023-10-09T00:27:01;101358.06;;;12.84;100.00
6200;BME280;3133;43.214;27.906;2023-10-09T00:29:39;101353.63;;;12.74;100.00
6200;BME280;3133;43.214;27.906;2023-10-09T00:32:10;101347.41;;;12.52;100.00
6200;BME280;3133;43.214;27.906;2023-10-09T00:34:48;101370.16;;;12.65;100.00
6200;BME280;3133;43.214;27.906;2023-10-09T00:37:16;101310.75;;;12.39;100.00
6200;BME280;3133;43.214;27.906;2023-10-09T00:39:48;101357.16;;;12.79;100.00
6200;BME280;3133;43.214;27.906;2023-10-09T00:42:21;101360.69;;;12.85;100.00
6200;BME280;3133;43.214;27.906;2023-10-09T00:44:54;101360.66;;;12.81;100.00
6200;BME280;3133;43.214;27.906;2023-10-09T00:47:21;101352.72;;;12.67;100.00
6200;BME280;3133;43.214;27.906;2023-10-09T00:49:54;101330.94;;;12.70;100.00
6200;BME280;3133;43.214;27.906;2023-10-09T00:52:26;101345.75;;;12.69;100.00
6200;BME280;3133;43.214;27.906;2023-10-09T00:54:58;101339.59;;;12.55;100.00
6200;BME280;3133;43.214;27.906;2023-10-09T00:57:32;101327.34;;;12.47;100.00
6200;BME280;3133;43.214;27.906;2023-10-09T01:00:05;101344.84;;;12.54;100.00
6200;BME280;3133;43.214;27.906;2023-10-09T01:02:49;101360.47;;;12.43;100.00
6200;BME280;3133;43.214;27.906;2023-10-09T01:05:19;101266.94;;;12.03;100.00
6200;BME280;3133;43.214;27.906;2023-10-09T01:07:47;101369.25;;;12.59;100.00
6200;BME280;3133;43.214;27.906;2023-10-09T01:10:23;101344.88;;;12.58;100.00
6200;BME280;3133;43.214;27.906;2023-10-09T01:12:51;101354.47;;;12.64;100.00
6200;BME280;3133;43.214;27.906;2023-10-09T01:15:21;101342.22;;;12.55;100.00
6200;BME280;3133;43.214;27.906;2023-10-09T01:18:09;101350.91;;;12.54;100.00
6200;BME280;3133;43.214;27.906;2023-10-09T01:20:37;101364.84;;;12.50;100.00
6200;BME280;3133;43.214;27.906;2023-10-09T01:23:11;101364.81;;;12.44;100.00
6200;BME280;3133;43.214;27.906;2023-10-09T01:25:38;101351.66;;;12.29;100.00
6200;BME280;3133;43.214;27.906;2023-10-09T01:28:15;101349.03;;;12.26;100.00
6200;BME280;3133;43.214;27.906;2023-10-09T01:30:45;101362.19;;;12.37;100.00
6200;BME280;3133;43.214;27.906;2023-10-09T01:33:13;101367.34;;;12.30;100.00
6200;BME280;3133;43.214;27.906;2023-10-09T01:35:41;101374.31;;;12.25;100.00
6200;BME280;3133;43.214;27.906;2023-10-09T01:38:15;101401.34;;;12.29;100.00
6200;BME280;3133;43.214;27.906;2023-10-09T01:40:42;101400.44;;;12.24;100.00
6200;BME280;3133;43.214;27.906;2023-10-09T01:43:10;101403.03;;;12.21;100.00
6200;BME280;3133;43.214;27.906;2023-10-09T01:45:37;101403.84;;;12.12;100.00
6200;BME280;3133;43.214;27.906;2023-10-09T01:48:09;101415.13;;;12.08;100.00
6200;BME280;3133;43.214;27.906;2023-10-09T01:50:37;101431.72;;;12.10;100.00
6200;BME280;3133;43.214;27.906;2023-10-09T01:53:07;101421.97;;;11.94;100.00
6200;BME280;3133;43.214;27.906;2023-10-09T01:55:36;101405.41;;;11.92;100.00
6200;BME280;3133;43.214;27.906;2023-10-09T01:58:05;101433.44;;;12.08;100.00
6200;BME280;3133;43.214;27.906;2023-10-09T02:00:42;101422.91;;;11.98;100.00
6200;BME280;3133;43.214;27.906;2023-10-09T02:03:14;101379.91;;;11.69;100.00
6200;BME280;3133;43.214;27.906;2023-10-09T02:05:48;101429.75;;;11.90;100.00
6200;BME280;3133;43.214;27.906;2023-10-09T02:08:16;101417.47;;;11.78;100.00
6200;BME280;3133;43.214;27.906;2023-10-09T02:10:48;101388.44;;;11.52;100.00
6200;BME280;3133;43.214;27.906;2023-10-09T02:13:16;101434.00;;;11.74;100.00
6200;BME280;3133;43.214;27.906;2023-10-09T02:15:43;101440.75;;;11.60;100.00
6200;BME280;3133;43.214;27.906;2023-10-09T02:18:24;101454.81;;;11.67;100.00
6200;BME280;3133;43.214;27.906;2023-10-09T02:21:06;101461.78;;;11.68;100.00
6200;BME280;3133;43.214;27.906;2023-10-09T02:23:39;101466.94;;;11.63;100.00
6200;BME280;3133;43.214;27.906;2023-10-09T02:26:13;101478.31;;;11.67;100.00
6200;BME280;3133;43.214;27.906;2023-10-09T02:28:45;101493.22;;;11.74;100.00
6200;BME280;3133;43.214;27.906;2023-10-09T02:31:18;101506.34;;;11.80;100.00
6200;BME280;3133;43.214;27.906;2023-10-09T02:33:47;101505.50;;;11.81;100.00
6200;BME280;3133;43.214;27.906;2023-10-09T02:36:18;101509.84;;;11.80;100.00
6200;BME280;3133;43.214;27.906;2023-10-09T02:38:45;101423.13;;;11.39;100.00
6200;BME280;3133;43.214;27.906;2023-10-09T02:41:15;101492.47;;;11.85;100.00
6200;BME280;3133;43.214;27.906;2023-10-09T02:43:48;101490.47;;;11.66;100.00
6200;BME280;3133;43.214;27.906;2023-10-09T02:46:17;101474.66;;;11.55;100.00
6200;BME280;3133;43.214;27.906;2023-10-09T02:48:45;101509.78;;;11.77;100.00
6200;BME280;3133;43.214;27.906;2023-10-09T02:51:17;101498.31;;;11.66;100.00
6200;BME280;3133;43.214;27.906;2023-10-09T02:53:58;101524.50;;;11.68;100.00
6200;BME280;3133;43.214;27.906;2023-10-09T02:56:35;101520.31;;;11.83;100.00
6200;BME280;3133;43.214;27.906;2023-10-09T02:59:08;101515.06;;;11.80;100.00
6200;BME280;3133;43.214;27.906;2023-10-09T03:01:38;101500.22;;;11.76;100.00
6200;BME280;3133;43.214;27.906;2023-10-09T03:04:05;101445.50;;;11.19;100.00
6200;BME280;3133;43.214;27.906;2023-10-09T03:06:36;101519.91;;;11.50;100.00
6200;BME280;3133;43.214;27.906;2023-10-09T03:09:09;101496.13;;;11.29;100.00
6200;BME280;3133;43.214;27.906;2023-10-09T03:11:45;101539.88;;;11.46;100.00
6200;BME280;3133;43.214;27.906;2023-10-09T03:14:13;101467.09;;;11.05;100.00
6200;BME280;3133;43.214;27.906;2023-10-09T03:16:41;101526.75;;;11.42;100.00
6200;BME280;3133;43.214;27.906;2023-10-09T03:19:08;101536.28;;;11.38;100.00
6200;BME280;3133;43.214;27.906;2023-10-09T03:21:37;101515.31;;;11.32;100.00
6200;BME280;3133;43.214;27.906;2023-10-09T03:24:03;101536.31;;;11.41;100.00
6200;BME280;3133;43.214;27.906;2023-10-09T03:26:32;101523.81;;;11.16;100.00
6200;BME280;3133;43.214;27.906;2023-10-09T03:29:00;101502.72;;;11.03;100.00
6200;BME280;3133;43.214;27.906;2023-10-09T03:31:31;101560.53;;;11.30;100.00
6200;BME280;3133;43.214;27.906;2023-10-09T03:33:58;101542.03;;;11.13;100.00
6200;BME280;3133;43.214;27.906;2023-10-09T03:36:25;101567.50;;;11.29;100.00
6200;BME280;3133;43.214;27.906;2023-10-09T03:38:54;101565.72;;;11.27;100.00
6200;BME280;3133;43.214;27.906;2023-10-09T03:41:23;101565.53;;;11.13;100.00
6200;BME280;3133;43.214;27.906;2023-10-09T03:43:52;101506.75;;;10.79;100.00
6200;BME280;3133;43.214;27.906;2023-10-09T03:46:21;101546.94;;;10.94;100.00
6200;BME280;3133;43.214;27.906;2023-10-09T03:48:52;101589.81;;;11.08;100.00
6200;BME280;3133;43.214;27.906;2023-10-09T03:51:22;101590.81;;;11.19;100.00
6200;BME280;3133;43.214;27.906;2023-10-09T03:53:50;101597.81;;;11.20;100.00
6200;BME280;3133;43.214;27.906;2023-10-09T03:56:18;101597.81;;;11.18;100.00
6200;BME280;3133;43.214;27.906;2023-10-09T03:58:47;101602.00;;;11.10;100.00
6200;BME280;3133;43.214;27.906;2023-10-09T04:01:16;101606.25;;;11.02;100.00
6200;BME280;3133;43.214;27.906;2023-10-09T04:03:49;101595.94;;;11.11;100.00
6200;BME280;3133;43.214;27.906;2023-10-09T04:06:20;101563.50;;;10.96;100.00
6200;BME280;3133;43.214;27.906;2023-10-09T04:08:47;101606.22;;;10.99;100.00
6200;BME280;3133;43.214;27.906;2023-10-09T04:11:16;101565.56;;;10.61;100.00
6200;BME280;3133;43.214;27.906;2023-10-09T04:13:48;101626.72;;;10.78;100.00
6200;BME280;3133;43.214;27.906;2023-10-09T04:16:17;101631.91;;;10.76;100.00
6200;BME280;3133;43.214;27.906;2023-10-09T04:19:02;101617.88;;;10.70;100.00
6200;BME280;3133;43.214;27.906;2023-10-09T04:21:36;101623.44;;;10.90;100.00
6200;BME280;3133;43.214;27.906;2023-10-09T04:24:03;101581.38;;;10.70;100.00
6200;BME280;3133;43.214;27.906;2023-10-09T04:26:48;101637.63;;;11.04;100.00
6200;BME280;3133;43.214;27.906;2023-10-09T04:29:22;101642.50;;;10.84;100.00
6200;BME280;3133;43.214;27.906;2023-10-09T04:31:51;101654.69;;;10.87;100.00
6200;BME280;3133;43.214;27.906;2023-10-09T04:34:22;101506.34;;;10.04;100.00
6200;BME280;3133;43.214;27.906;2023-10-09T04:36:49;101649.28;;;10.76;100.00
6200;BME280;3133;43.214;27.906;2023-10-09T04:39:17;101646.16;;;10.95;100.00
6200;BME280;3133;43.214;27.906;2023-10-09T04:41:58;101654.09;;;11.01;100.00
6200;BME280;3133;43.214;27.906;2023-10-09T04:44:39;101569.69;;;10.48;100.00
6200;BME280;3133;43.214;27.906;2023-10-09T04:47:25;101656.19;;;11.23;100.00
6200;BME280;3133;43.214;27.906;2023-10-09T04:50:02;101655.06;;;11.08;100.00
6200;BME280;3133;43.214;27.906;2023-10-09T04:52:37;101649.69;;;10.97;100.00
6200;BME280;3133;43.214;27.906;2023-10-09T04:55:17;101649.69;;;10.99;100.00
6200;BME280;3133;43.214;27.906;2023-10-09T04:57:46;101663.63;;;10.99;100.00
6200;BME280;3133;43.214;27.906;2023-10-09T05:00:26;101589.66;;;10.46;100.00
6200;BME280;3133;43.214;27.906;2023-10-09T05:03:12;101653.16;;;10.98;100.00
6200;BME280;3133;43.214;27.906;2023-10-09T05:05:52;101657.59;;;11.03;100.00
6200;BME280;3133;43.214;27.906;2023-10-09T05:08:25;101661.66;;;10.86;100.00
6200;BME280;3133;43.214;27.906;2023-10-09T05:10:55;101673.94;;;10.93;100.00
6200;BME280;3133;43.214;27.906;2023-10-09T05:13:33;101611.69;;;10.63;100.00
6200;BME280;3133;43.214;27.906;2023-10-09T05:16:09;101684.34;;;10.89;100.00
6200;BME280;3133;43.214;27.906;2023-10-09T05:18:41;101677.41;;;10.91;100.00
6200;BME280;3133;43.214;27.906;2023-10-09T05:21:11;101646.41;;;10.59;100.00
6200;BME280;3133;43.214;27.906;2023-10-09T05:23:52;101666.84;;;10.85;100.00
6200;BME280;3133;43.214;27.906;2023-10-09T05:26:33;101691.94;;;10.78;100.00
6200;BME280;3133;43.214;27.906;2023-10-09T05:29:17;101658.72;;;10.68;100.00
6200;BME280;3133;43.214;27.906;2023-10-09T05:32:00;101637.59;;;10.54;100.00
6200;BME280;3133;43.214;27.906;2023-10-09T05:34:40;101699.09;;;10.88;100.00
6200;BME280;3133;43.214;27.906;2023-10-09T05:37:29;101701.16;;;11.06;100.00
6200;BME280;3133;43.214;27.906;2023-10-09T05:39:59;101688.19;;;11.12;100.00
6200;BME280;3133;43.214;27.906;2023-10-09T05:42:47;101721.09;;;11.53;100.00
6200;BME280;3133;43.214;27.906;2023-10-09T05:45:23;101727.31;;;11.61;100.00
6200;BME280;3133;43.214;27.906;2023-10-09T05:48:18;101728.47;;;11.78;100.00
6200;BME280;3133;43.214;27.906;2023-10-09T05:51:32;101696.63;;;11.49;100.00
6200;BME280;3133;43.214;27.906;2023-10-09T05:54:08;101709.72;;;11.51;100.00
6200;BME280;3133;43.214;27.906;2023-10-09T05:57:09;101745.03;;;11.80;100.00
6200;BME280;3133;43.214;27.906;2023-10-09T05:59:49;101753.63;;;11.73;100.00
6200;BME280;3133;43.214;27.906;2023-10-09T06:02:34;101689.22;;;11.21;100.00
6200;BME280;3133;43.214;27.906;2023-10-09T06:05:29;101759.66;;;11.68;100.00
6200;BME280;3133;43.214;27.906;2023-10-09T06:08:20;101731.34;;;11.42;100.00
6200;BME280;3133;43.214;27.906;2023-10-09T06:10:53;101780.31;;;11.55;100.00
6200;BME280;3133;43.214;27.906;2023-10-09T06:13:31;101762.72;;;11.44;100.00
6200;BME280;3133;43.214;27.906;2023-10-09T06:16:11;101671.31;;;10.92;100.00
6200;BME280;3133;43.214;27.906;2023-10-09T06:18:55;101727.78;;;11.37;100.00
6200;BME280;3133;43.214;27.906;2023-10-09T06:21:34;101768.34;;;11.67;100.00
6200;BME280;3133;43.214;27.906;2023-10-09T06:24:27;101778.25;;;11.87;100.00
6200;BME280;3133;43.214;27.906;2023-10-09T06:27:06;101780.72;;;11.78;100.00
6200;BME280;3133;43.214;27.906;2023-10-09T06:29:40;101683.16;;;11.24;100.00
6200;BME280;3133;43.214;27.906;2023-10-09T06:32:21;101762.47;;;11.81;100.00
6200;BME280;3133;43.214;27.906;2023-10-09T06:35:03;101791.66;;;12.08;100.00
6200;BME280;3133;43.214;27.906;2023-10-09T06:37:48;101646.69;;;11.28;100.00
6200;BME280;3133;43.214;27.906;2023-10-09T06:40:34;101789.91;;;12.09;100.00
6200;BME280;3133;43.214;27.906;2023-10-09T06:43:20;101773.06;;;11.89;100.00
6200;BME280;3133;43.214;27.906;2023-10-09T06:45:54;101773.13;;;11.93;100.00
6200;BME280;3133;43.214;27.906;2023-10-09T06:48:23;101795.38;;;12.24;100.00
6200;BME280;3133;43.214;27.906;2023-10-09T06:51:11;101748.84;;;12.00;94.37
6200;BME280;3133;43.214;27.906;2023-10-09T06:53:41;101798.69;;;12.14;91.32
6200;BME280;3133;43.214;27.906;2023-10-09T06:56:24;101776.72;;;12.01;88.96
6200;BME280;3133;43.214;27.906;2023-10-09T06:59:12;101656.59;;;11.50;87.76
6200;BME280;3133;43.214;27.906;2023-10-09T07:01:42;101793.66;;;12.26;84.53
6200;BME280;3133;43.214;27.906;2023-10-09T07:04:11;101772.66;;;12.23;85.47
6200;BME280;3133;43.214;27.906;2023-10-09T07:06:44;101805.03;;;12.31;81.01
6200;BME280;3133;43.214;27.906;2023-10-09T07:09:18;101737.56;;;12.04;79.91
6200;BME280;3133;43.214;27.906;2023-10-09T07:11:47;101783.28;;;12.35;75.82
6200;BME280;3133;43.214;27.906;2023-10-09T07:14:30;101789.41;;;12.37;75.32
6200;BME280;3133;43.214;27.906;2023-10-09T07:17:20;101793.91;;;12.47;77.48
6200;BME280;3133;43.214;27.906;2023-10-09T07:20:01;101766.81;;;12.42;75.98
6200;BME280;3133;43.214;27.906;2023-10-09T07:22:41;101744.91;;;12.34;76.69
6200;BME280;3133;43.214;27.906;2023-10-09T07:25:20;101688.84;;;12.11;76.06
6200;BME280;3133;43.214;27.906;2023-10-09T07:28:08;101773.00;;;12.49;70.42
6200;BME280;3133;43.214;27.906;2023-10-09T07:30:55;101773.94;;;12.54;71.12
6200;BME280;3133;43.214;27.906;2023-10-09T07:33:23;101782.88;;;12.72;71.87
6200;BME280;3133;43.214;27.906;2023-10-09T07:36:10;101784.84;;;12.88;72.32
6200;BME280;3133;43.214;27.906;2023-10-09T07:38:40;101779.66;;;12.94;70.14
6200;BME280;3133;43.214;27.906;2023-10-09T07:41:11;101772.59;;;12.89;66.76
6200;BME280;3133;43.214;27.906;2023-10-09T07:43:56;101781.34;;;12.91;66.13
6200;BME280;3133;43.214;27.906;2023-10-09T07:46:23;101785.03;;;13.08;66.36
6200;BME280;3133;43.214;27.906;2023-10-09T07:49:02;101750.81;;;12.91;63.33
6200;BME280;3133;43.214;27.906;2023-10-09T07:51:35;101713.22;;;12.83;64.23
6200;BME280;3133;43.214;27.906;2023-10-09T07:54:02;101773.72;;;13.09;63.14
6200;BME280;3133;43.214;27.906;2023-10-09T07:56:33;101768.25;;;12.91;63.79
6200;BME280;3133;43.214;27.906;2023-10-09T07:59:06;101688.91;;;12.96;64.39
6200;BME280;3133;43.214;27.906;2023-10-09T08:01:37;101773.38;;;13.67;63.35
6200;BME280;3133;43.214;27.906;2023-10-09T08:04:05;101776.88;;;13.69;61.76
6200;BME280;3133;43.214;27.906;2023-10-09T08:06:37;101779.34;;;13.50;61.80
6200;BME280;3133;43.214;27.906;2023-10-09T08:09:08;101657.38;;;12.87;63.25
6200;BME280;3133;43.214;27.906;2023-10-09T08:11:45;101771.47;;;13.50;63.66
6200;BME280;3133;43.214;27.906;2023-10-09T08:15:03;101759.94;;;13.30;64.04
6200;BME280;3133;43.214;27.906;2023-10-09T08:17:47;101759.31;;;13.55;64.65
6200;BME280;3133;43.214;27.906;2023-10-09T08:20:17;101660.06;;;12.93;75.64
6200;BME280;3133;43.214;27.906;2023-10-09T08:22:51;101723.38;;;13.45;72.21
6200;BME280;3133;43.214;27.906;2023-10-09T08:25:18;101651.53;;;13.13;79.31
6200;BME280;3133;43.214;27.906;2023-10-09T08:27:58;101693.81;;;13.64;82.82
6200;BME280;3133;43.214;27.906;2023-10-09T08:30:46;101704.38;;;13.79;74.65
6200;BME280;3133;43.214;27.906;2023-10-09T08:33:28;101734.25;;;13.99;71.62
6200;BME280;3133;43.214;27.906;2023-10-09T08:36:06;101730.91;;;14.26;67.13
6200;BME280;3133;43.214;27.906;2023-10-09T08:38:36;101758.16;;;14.56;68.89
6200;BME280;3133;43.214;27.906;2023-10-09T08:41:09;101760.81;;;14.59;73.41
6200;BME280;3133;43.214;27.906;2023-10-09T08:43:53;101683.38;;;13.70;74.49
6200;BME280;3133;43.214;27.906;2023-10-09T08:46:23;101718.53;;;14.02;79.90
6200;BME280;3133;43.214;27.906;2023-10-09T08:48:53;101750.25;;;14.47;79.49
6200;BME280;3133;43.214;27.906;2023-10-09T08:51:20;101745.06;;;14.59;78.21
6200;BME280;3133;43.214;27.906;2023-10-09T08:53:48;101747.72;;;14.75;78.38
6200;BME280;3133;43.214;27.906;2023-10-09T08:56:17;101724.09;;;14.82;75.97
6200;BME280;3133;43.214;27.906;2023-10-09T08:58:49;101749.56;;;15.22;74.77
6200;BME280;3133;43.214;27.906;2023-10-09T09:01:16;101723.28;;;15.31;75.58
6200;BME280;3133;43.214;27.906;2023-10-09T09:03:53;101746.06;;;15.88;75.08
6200;BME280;3133;43.214;27.906;2023-10-09T09:06:22;101707.50;;;15.78;71.69
6200;BME280;3133;43.214;27.906;2023-10-09T09:08:50;101693.44;;;15.76;70.36
6200;BME280;3133;43.214;27.906;2023-10-09T09:11:20;101529.75;;;14.99;66.49
6200;BME280;3133;43.214;27.906;2023-10-09T09:14:03;101714.47;;;15.91;67.38
6200;BME280;3133;43.214;27.906;2023-10-09T09:16:32;101742.47;;;16.18;67.25
6200;BME280;3133;43.214;27.906;2023-10-09T09:19:03;101736.31;;;16.21;69.89
6200;BME280;3133;43.214;27.906;2023-10-09T09:21:31;101707.47;;;15.89;71.80
6200;BME280;3133;43.214;27.906;2023-10-09T09:24:05;101730.28;;;15.78;74.65
6200;BME280;3133;43.214;27.906;2023-10-09T09:26:42;101720.63;;;15.68;75.37
6200;BME280;3133;43.214;27.906;2023-10-09T09:29:13;101711.88;;;15.79;73.69
6200;BME280;3133;43.214;27.906;2023-10-09T09:31:54;101714.47;;;15.85;72.16
6200;BME280;3133;43.214;27.906;2023-10-09T09:34:45;101666.28;;;15.74;73.02
6200;BME280;3133;43.214;27.906;2023-10-09T09:37:22;101689.84;;;16.04;72.81
6200;BME280;3133;43.214;27.906;2023-10-09T09:39:54;101708.31;;;15.97;71.79
6200;BME280;3133;43.214;27.906;2023-10-09T09:42:36;101585.72;;;15.46;73.19
6200;BME280;3133;43.214;27.906;2023-10-09T09:45:07;101707.50;;;15.66;72.70
6200;BME280;3133;43.214;27.906;2023-10-09T09:47:37;101647.06;;;15.48;74.21
6200;BME280;3133;43.214;27.906;2023-10-09T09:50:06;101688.94;;;16.13;75.25
6200;BME280;3133;43.214;27.906;2023-10-09T09:52:39;101683.59;;;16.33;71.15
6200;BME280;3133;43.214;27.906;2023-10-09T09:55:08;101680.31;;;15.73;73.35
6200;BME280;3133;43.214;27.906;2023-10-09T09:57:42;101640.81;;;15.93;74.09
6200;BME280;3133;43.214;27.906;2023-10-09T10:00:18;101545.47;;;15.11;71.98
6200;BME280;3133;43.214;27.906;2023-10-09T10:02:58;101639.19;;;15.48;71.57
6200;BME280;3133;43.214;27.906;2023-10-09T10:05:30;101668.03;;;15.75;70.85
6200;BME280;3133;43.214;27.906;2023-10-09T10:07:59;101666.22;;;15.97;72.04
6200;BME280;3133;43.214;27.906;2023-10-09T10:10:37;101661.75;;;16.16;68.95
6200;BME280;3133;43.214;27.906;2023-10-09T10:13:13;101646.69;;;16.51;66.97
6200;BME280;3133;43.214;27.906;2023-10-09T10:16:00;101658.94;;;16.56;66.67
6200;BME280;3133;43.214;27.906;2023-10-09T10:18:52;101650.97;;;16.67;66.02
6200;BME280;3133;43.214;27.906;2023-10-09T10:21:23;101630.19;;;16.09;66.10
6200;BME280;3133;43.214;27.906;2023-10-09T10:24:03;101595.81;;;16.40;67.69
6200;BME280;3133;43.214;27.906;2023-10-09T10:26:40;101624.72;;;16.52;64.21
6200;BME280;3133;43.214;27.906;2023-10-09T10:29:24;101644.88;;;16.57;64.00
6200;BME280;3133;43.214;27.906;2023-10-09T10:31:59;101633.56;;;16.40;65.66
6200;BME280;3133;43.214;27.906;2023-10-09T10:34:53;101551.19;;;16.19;65.91
6200;BME280;3133;43.214;27.906;2023-10-09T10:37:34;101620.19;;;16.73;65.73
6200;BME280;3133;43.214;27.906;2023-10-09T10:40:09;101613.16;;;16.77;66.82
6200;BME280;3133;43.214;27.906;2023-10-09T10:43:01;101625.63;;;16.39;68.98
6200;BME280;3133;43.214;27.906;2023-10-09T10:45:35;101618.09;;;15.69;75.04
6200;BME280;3133;43.214;27.906;2023-10-09T10:48:09;101611.03;;;15.77;76.86
6200;BME280;3133;43.214;27.906;2023-10-09T10:50:48;101607.56;;;15.74;76.26
6200;BME280;3133;43.214;27.906;2023-10-09T10:53:24;101594.44;;;15.65;76.17
6200;BME280;3133;43.214;27.906;2023-10-09T10:55:57;101596.13;;;15.82;77.22
6200;BME280;3133;43.214;27.906;2023-10-09T10:58:23;101590.91;;;15.64;76.23
6200;BME280;3133;43.214;27.906;2023-10-09T11:01:01;101585.59;;;15.76;74.02
6200;BME280;3133;43.214;27.906;2023-10-09T11:03:41;101578.53;;;15.87;72.16
6200;BME280;3133;43.214;27.906;2023-10-09T11:06:26;101577.56;;;16.06;72.26
6200;BME280;3133;43.214;27.906;2023-10-09T11:09:04;101537.50;;;15.52;75.36
6200;BME280;3133;43.214;27.906;2023-10-09T11:11:48;101566.44;;;15.35;75.75
6200;BME280;3133;43.214;27.906;2023-10-09T11:14:16;101545.44;;;15.24;76.39
6200;BME280;3133;43.214;27.906;2023-10-09T11:16:53;101557.63;;;15.53;77.86
6200;BME280;3133;43.214;27.906;2023-10-09T11:19:28;101550.63;;;15.53;77.84
6200;BME280;3133;43.214;27.906;2023-10-09T11:21:57;101521.72;;;15.55;76.37
6200;BME280;3133;43.214;27.906;2023-10-09T11:24:27;101552.31;;;15.78;77.96
6200;BME280;3133;43.214;27.906;2023-10-09T11:26:58;101560.84;;;16.15;76.07
6200;BME280;3133;43.214;27.906;2023-10-09T11:29:31;101539.94;;;15.92;73.02
6200;BME280;3133;43.214;27.906;2023-10-09T11:32:15;101531.16;;;15.93;69.94
6200;BME280;3133;43.214;27.906;2023-10-09T11:34:44;101498.78;;;15.81;70.04
6200;BME280;3133;43.214;27.906;2023-10-09T11:37:18;101533.59;;;16.24;70.20
6200;BME280;3133;43.214;27.906;2023-10-09T11:40:00;101450.63;;;15.71;69.65
6200;BME280;3133;43.214;27.906;2023-10-09T11:42:31;101360.53;;;15.34;70.52
6200;BME280;3133;43.214;27.906;2023-10-09T11:45:02;101492.50;;;16.04;70.02
6200;BME280;3133;43.214;27.906;2023-10-09T11:47:45;101525.94;;;15.87;70.79
6200;BME280;3133;43.214;27.906;2023-10-09T11:50:38;101456.06;;;15.30;74.26
6200;BME280;3133;43.214;27.906;2023-10-09T11:53:08;101520.75;;;15.68;75.01
6200;BME280;3133;43.214;27.906;2023-10-09T11:55:44;101445.63;;;15.15;79.25
6200;BME280;3133;43.214;27.906;2023-10-09T11:58:14;101244.63;;;14.18;78.11
6200;BME280;3133;43.214;27.906;2023-10-09T12:00:50;101438.53;;;15.32;77.02
6200;BME280;3133;43.214;27.906;2023-10-09T12:03:26;101414.84;;;15.42;77.91
6200;BME280;3133;43.214;27.906;2023-10-09T12:06:06;101496.03;;;16.00;76.92
6200;BME280;3133;43.214;27.906;2023-10-09T12:08:38;101485.50;;;16.00;76.10
6200;BME280;3133;43.214;27.906;2023-10-09T12:11:07;101468.31;;;15.31;78.96
6200;BME280;3133;43.214;27.906;2023-10-09T12:13:37;101478.94;;;14.97;84.17
6200;BME280;3133;43.214;27.906;2023-10-09T12:16:04;101356.56;;;14.35;83.65
6200;BME280;3133;43.214;27.906;2023-10-09T12:18:35;101465.75;;;15.15;85.34
6200;BME280;3133;43.214;27.906;2023-10-09T12:21:02;101452.56;;;15.33;87.82
6200;BME280;3133;43.214;27.906;2023-10-09T12:23:30;101454.31;;;15.31;90.76
6200;BME280;3133;43.214;27.906;2023-10-09T12:26:01;101449.03;;;15.46;91.01
6200;BME280;3133;43.214;27.906;2023-10-09T12:28:29;101441.13;;;15.48;88.17
6200;BME280;3133;43.214;27.906;2023-10-09T12:30:59;101436.78;;;15.33;90.02
6200;BME280;3133;43.214;27.906;2023-10-09T12:33:28;101438.53;;;15.25;93.35
6200;BME280;3133;43.214;27.906;2023-10-09T12:36:05;101289.16;;;14.51;95.27
6200;BME280;3133;43.214;27.906;2023-10-09T12:38:43;101396.47;;;15.32;95.15
6200;BME280;3133;43.214;27.906;2023-10-09T12:41:11;101414.75;;;15.58;97.57
6200;BME280;3133;43.214;27.906;2023-10-09T12:43:49;101347.41;;;15.34;95.05
6200;BME280;3133;43.214;27.906;2023-10-09T12:46:17;101351.78;;;15.37;92.58
6200;BME280;3133;43.214;27.906;2023-10-09T12:48:49;101422.50;;;15.79;92.10
6200;BME280;3133;43.214;27.906;2023-10-09T12:51:16;101428.59;;;15.86;91.12
6200;BME280;3133;43.214;27.906;2023-10-09T12:53:43;101426.75;;;16.01;94.68
6200;BME280;3133;43.214;27.906;2023-10-09T12:56:11;101406.56;;;16.03;99.53
6200;BME280;3133;43.214;27.906;2023-10-09T12:58:53;101369.25;;;15.50;97.64
6200;BME280;3133;43.214;27.906;2023-10-09T13:01:22;101400.56;;;15.83;98.04
6200;BME280;3133;43.214;27.906;2023-10-09T13:03:48;101363.00;;;15.66;99.04
6200;BME280;3133;43.214;27.906;2023-10-09T13:06:15;101398.00;;;15.76;100.00
6200;BME280;3133;43.214;27.906;2023-10-09T13:08:49;101331.59;;;15.45;100.00
6200;BME280;3133;43.214;27.906;2023-10-09T13:11:17;101335.19;;;15.23;100.00
6200;BME280;3133;43.214;27.906;2023-10-09T13:13:45;101373.59;;;15.51;99.95
6200;BME280;3133;43.214;27.906;2023-10-09T13:16:20;101343.94;;;15.28;99.74
6200;BME280;3133;43.214;27.906;2023-10-09T13:18:50;101348.25;;;15.40;100.00
6200;BME280;3133;43.214;27.906;2023-10-09T13:21:18;101301.00;;;15.27;100.00
6200;BME280;3133;43.214;27.906;2023-10-09T13:23:47;101349.81;;;15.69;100.00
6200;BME280;3133;43.214;27.906;2023-10-09T13:26:16;101368.94;;;15.92;100.00
6200;BME280;3133;43.214;27.906;2023-10-09T13:28:50;101293.94;;;15.43;100.00
6200;BME280;3133;43.214;27.906;2023-10-09T13:31:19;101285.06;;;15.53;100.00
6200;BME280;3133;43.214;27.906;2023-10-09T13:33:51;101347.84;;;15.97;100.00